sensor_id;sensor_type;location;lat;lon;timestamp;pressure;altitude;pressure_sealevel;temperature
20103;BMP180;10210;52.284;9.892;2024-01-25T00:02:16;101111.00;;;11.90
20103;BMP180;10210;52.284;9.892;2024-01-25T00:04:42;101106.00;;;11.90
20103;BMP180;10210;52.284;9.892;2024-01-25T00:07:08;101106.00;;;11.90
20103;BMP180;10210;52.284;9.892;2024-01-25T00:09:35;101094.00;;;11.90
20103;BMP180;10210;52.284;9.892;2024-01-25T00:12:01;101115.00;;;11.90
20103;BMP180;10210;52.284;9.892;2024-01-25T00:14:27;101095.00;;;11.90
20103;BMP180;10210;52.284;9.892;2024-01-25T00:16:52;101096.00;;;11.90
20103;BMP180;10210;52.284;9.892;2024-01-25T00:19:18;101108.00;;;11.90
20103;BMP180;10210;52.284;9.892;2024-01-25T00:21:44;101096.00;;;11.90
20103;BMP180;10210;52.284;9.892;2024-01-25T00:24:13;101110.00;;;11.90
20103;BMP180;10210;52.284;9.892;2024-01-25T00:26:39;101113.00;;;11.90
20103;BMP180;10210;52.284;9.892;2024-01-25T00:29:05;101110.00;;;11.90
20103;BMP180;10210;52.284;9.892;2024-01-25T00:31:31;101108.00;;;11.90
20103;BMP180;10210;52.284;9.892;2024-01-25T00:34:00;101114.00;;;11.90
20103;BMP180;10210;52.284;9.892;2024-01-25T00:36:26;101124.00;;;11.90
20103;BMP180;10210;52.284;9.892;2024-01-25T00:38:53;101129.00;;;11.90
20103;BMP180;10210;52.284;9.892;2024-01-25T00:41:19;101128.00;;;11.90
20103;BMP180;10210;52.284;9.892;2024-01-25T00:43:45;101126.00;;;11.90
20103;BMP180;10210;52.284;9.892;2024-01-25T00:46:12;101137.00;;;11.80
20103;BMP180;10210;52.284;9.892;2024-01-25T00:48:38;101149.00;;;11.80
20103;BMP180;10210;52.284;9.892;2024-01-25T00:51:07;101146.00;;;11.90
20103;BMP180;10210;52.284;9.892;2024-01-25T00:53:34;101145.00;;;11.90
20103;BMP180;10210;52.284;9.892;2024-01-25T00:56:00;101158.00;;;11.90
20103;BMP180;10210;52.284;9.892;2024-01-25T00:58:26;101144.00;;;11.90
20103;BMP180;10210;52.284;9.892;2024-01-25T01:00:52;101145.00;;;11.90
20103;BMP180;10210;52.284;9.892;2024-01-25T01:03:18;101141.00;;;11.90
20103;BMP180;10210;52.284;9.892;2024-01-25T01:05:45;101164.00;;;11.90
20103;BMP180;10210;52.284;9.892;2024-01-25T01:08:12;101149.00;;;11.80
20103;BMP180;10210;52.284;9.892;2024-01-25T01:10:38;101140.00;;;11.80
20103;BMP180;10210;52.284;9.892;2024-01-25T01:13:03;101140.00;;;11.80
20103;BMP180;10210;52.284;9.892;2024-01-25T01:15:29;101137.00;;;11.80
20103;BMP180;10210;52.284;9.892;2024-01-25T01:17:55;101135.00;;;11.80
20103;BMP180;10210;52.284;9.892;2024-01-25T01:20:20;101128.00;;;11.80
20103;BMP180;10210;52.284;9.892;2024-01-25T01:22:46;101142.00;;;11.80
20103;BMP180;10210;52.284;9.892;2024-01-25T01:25:12;101147.00;;;11.80
20103;BMP180;10210;52.284;9.892;2024-01-25T01:27:37;101143.00;;;11.80
20103;BMP180;10210;52.284;9.892;2024-01-25T01:30:04;101150.00;;;11.80
20103;BMP180;10210;52.284;9.892;2024-01-25T01:32:30;101147.00;;;11.80
20103;BMP180;10210;52.284;9.892;2024-01-25T01:34:55;101145.00;;;11.70
20103;BMP180;10210;52.284;9.892;2024-01-25T01:37:21;101167.00;;;11.70
20103;BMP180;10210;52.284;9.892;2024-01-25T01:39:46;101170.00;;;11.70
20103;BMP180;10210;52.284;9.892;2024-01-25T01:42:12;101172.00;;;11.70
20103;BMP180;10210;52.284;9.892;2024-01-25T01:44:39;101169.00;;;11.70
20103;BMP180;10210;52.284;9.892;2024-01-25T01:47:05;101168.00;;;11.70
20103;BMP180;10210;52.284;9.892;2024-01-25T01:49:30;101164.00;;;11.70
20103;BMP180;10210;52.284;9.892;2024-01-25T01:51:57;101176.00;;;11.70
20103;BMP180;10210;52.284;9.892;2024-01-25T01:54:25;101170.00;;;11.70
20103;BMP180;10210;52.284;9.892;2024-01-25T01:56:52;101191.00;;;11.70
20103;BMP180;10210;52.284;9.892;2024-01-25T01:59:18;101185.00;;;11.70
20103;BMP180;10210;52.284;9.892;2024-01-25T02:01:43;101190.00;;;11.70
20103;BMP180;10210;52.284;9.892;2024-01-25T02:04:09;101203.00;;;11.70
20103;BMP180;10210;52.284;9.892;2024-01-25T02:06:35;101195.00;;;11.70
20103;BMP180;10210;52.284;9.892;2024-01-25T02:09:01;101196.00;;;11.60
20103;BMP180;10210;52.284;9.892;2024-01-25T02:11:28;101205.00;;;11.70
20103;BMP180;10210;52.284;9.892;2024-01-25T02:13:54;101205.00;;;11.60
20103;BMP180;10210;52.284;9.892;2024-01-25T02:16:19;101196.00;;;11.60
20103;BMP180;10210;52.284;9.892;2024-01-25T02:18:46;101192.00;;;11.60
20103;BMP180;10210;52.284;9.892;2024-01-25T02:21:13;101197.00;;;11.60
20103;BMP180;10210;52.284;9.892;2024-01-25T02:23:39;101206.00;;;11.60
20103;BMP180;10210;52.284;9.892;2024-01-25T02:26:05;101206.00;;;11.60
20103;BMP180;10210;52.284;9.892;2024-01-25T02:28:30;101193.00;;;11.60
20103;BMP180;10210;52.284;9.892;2024-01-25T02:30:58;101197.00;;;11.60
20103;BMP180;10210;52.284;9.892;2024-01-25T02:33:24;101201.00;;;11.60
20103;BMP180;10210;52.284;9.892;2024-01-25T02:35:50;101201.00;;;11.50
20103;BMP180;10210;52.284;9.892;2024-01-25T02:38:15;101197.00;;;11.60
20103;BMP180;10210;52.284;9.892;2024-01-25T02:40:41;101209.00;;;11.50
20103;BMP180;10210;52.284;9.892;2024-01-25T02:43:08;101208.00;;;11.50
20103;BMP180;10210;52.284;9.892;2024-01-25T02:45:34;101225.00;;;11.50
20103;BMP180;10210;52.284;9.892;2024-01-25T02:47:59;101217.00;;;11.50
20103;BMP180;10210;52.284;9.892;2024-01-25T02:50:27;101213.00;;;11.50
20103;BMP180;10210;52.284;9.892;2024-01-25T02:52:53;101210.00;;;11.50
20103;BMP180;10210;52.284;9.892;2024-01-25T02:55:19;101221.00;;;11.50
20103;BMP180;10210;52.284;9.892;2024-01-25T02:57:45;101217.00;;;11.50
20103;BMP180;10210;52.284;9.892;2024-01-25T03:00:11;101216.00;;;11.50
20103;BMP180;10210;52.284;9.892;2024-01-25T03:02:37;101225.00;;;11.50
20103;BMP180;10210;52.284;9.892;2024-01-25T03:05:03;101232.00;;;11.50
20103;BMP180;10210;52.284;9.892;2024-01-25T03:07:29;101222.00;;;11.50
20103;BMP180;10210;52.284;9.892;2024-01-25T03:09:55;101213.00;;;11.50
20103;BMP180;10210;52.284;9.892;2024-01-25T03:12:20;101221.00;;;11.50
20103;BMP180;10210;52.284;9.892;2024-01-25T03:14:48;101228.00;;;11.50
20103;BMP180;10210;52.284;9.892;2024-01-25T03:17:13;101233.00;;;11.50
20103;BMP180;10210;52.284;9.892;2024-01-25T03:19:39;101224.00;;;11.50
20103;BMP180;10210;52.284;9.892;2024-01-25T03:22:05;101224.00;;;11.40
20103;BMP180;10210;52.284;9.892;2024-01-25T03:24:30;101234.00;;;11.40
20103;BMP180;10210;52.284;9.892;2024-01-25T03:26:56;101228.00;;;11.40
20103;BMP180;10210;52.284;9.892;2024-01-25T03:29:21;101217.00;;;11.40
20103;BMP180;10210;52.284;9.892;2024-01-25T03:31:49;101210.00;;;11.40
20103;BMP180;10210;52.284;9.892;2024-01-25T03:34:15;101221.00;;;11.40
20103;BMP180;10210;52.284;9.892;2024-01-25T03:36:41;101216.00;;;11.40
20103;BMP180;10210;52.284;9.892;2024-01-25T03:39:07;101213.00;;;11.30
20103;BMP180;10210;52.284;9.892;2024-01-25T03:41:33;101213.00;;;11.30
20103;BMP180;10210;52.284;9.892;2024-01-25T03:43:59;101212.00;;;11.30
20103;BMP180;10210;52.284;9.892;2024-01-25T03:46:24;101225.00;;;11.30
20103;BMP180;10210;52.284;9.892;2024-01-25T03:48:50;101220.00;;;11.30
20103;BMP180;10210;52.284;9.892;2024-01-25T03:51:16;101234.00;;;11.30
20103;BMP180;10210;52.284;9.892;2024-01-25T03:53:42;101232.00;;;11.20
20103;BMP180;10210;52.284;9.892;2024-01-25T03:56:14;101230.00;;;11.20
20103;BMP180;10210;52.284;9.892;2024-01-25T03:58:44;101236.00;;;11.20
20103;BMP180;10210;52.284;9.892;2024-01-25T04:01:09;101228.00;;;11.20
20103;BMP180;10210;52.284;9.892;2024-01-25T04:03:35;101239.00;;;11.20
20103;BMP180;10210;52.284;9.892;2024-01-25T04:06:01;101249.00;;;11.10
20103;BMP180;10210;52.284;9.892;2024-01-25T04:08:27;101246.00;;;11.10
20103;BMP180;10210;52.284;9.892;2024-01-25T04:10:53;101258.00;;;11.10
20103;BMP180;10210;52.284;9.892;2024-01-25T04:13:18;101260.00;;;11.10
20103;BMP180;10210;52.284;9.892;2024-01-25T04:15:44;101258.00;;;11.10
20103;BMP180;10210;52.284;9.892;2024-01-25T04:18:09;101261.00;;;11.10
20103;BMP180;10210;52.284;9.892;2024-01-25T04:20:35;101267.00;;;11.10
20103;BMP180;10210;52.284;9.892;2024-01-25T04:23:01;101258.00;;;11.10
20103;BMP180;10210;52.284;9.892;2024-01-25T04:25:27;101267.00;;;11.10
20103;BMP180;10210;52.284;9.892;2024-01-25T04:27:53;101283.00;;;11.10
20103;BMP180;10210;52.284;9.892;2024-01-25T04:30:18;101275.00;;;11.10
20103;BMP180;10210;52.284;9.892;2024-01-25T04:32:44;101280.00;;;11.10
20103;BMP180;10210;52.284;9.892;2024-01-25T04:35:10;101296.00;;;11.10
20103;BMP180;10210;52.284;9.892;2024-01-25T04:37:36;101288.00;;;11.10
20103;BMP180;10210;52.284;9.892;2024-01-25T04:40:02;101283.00;;;11.00
20103;BMP180;10210;52.284;9.892;2024-01-25T04:42:28;101289.00;;;11.10
20103;BMP180;10210;52.284;9.892;2024-01-25T04:44:54;101277.00;;;11.10
20103;BMP180;10210;52.284;9.892;2024-01-25T04:47:19;101289.00;;;11.00
20103;BMP180;10210;52.284;9.892;2024-01-25T04:49:45;101282.00;;;11.00
20103;BMP180;10210;52.284;9.892;2024-01-25T04:52:11;101289.00;;;11.00
20103;BMP180;10210;52.284;9.892;2024-01-25T04:54:36;101292.00;;;11.00
20103;BMP180;10210;52.284;9.892;2024-01-25T04:57:02;101296.00;;;11.00
20103;BMP180;10210;52.284;9.892;2024-01-25T04:59:32;101318.00;;;11.00
20103;BMP180;10210;52.284;9.892;2024-01-25T05:01:59;101316.00;;;11.00
20103;BMP180;10210;52.284;9.892;2024-01-25T05:04:25;101324.00;;;11.00
20103;BMP180;10210;52.284;9.892;2024-01-25T05:06:50;101335.00;;;11.00
20103;BMP180;10210;52.284;9.892;2024-01-25T05:09:16;101344.00;;;11.00
20103;BMP180;10210;52.284;9.892;2024-01-25T05:11:42;101350.00;;;11.00
20103;BMP180;10210;52.284;9.892;2024-01-25T05:14:08;101364.00;;;11.00
20103;BMP180;10210;52.284;9.892;2024-01-25T05:16:33;101359.00;;;11.00
20103;BMP180;10210;52.284;9.892;2024-01-25T05:19:00;101370.00;;;11.00
20103;BMP180;10210;52.284;9.892;2024-01-25T05:21:26;101357.00;;;11.00
20103;BMP180;10210;52.284;9.892;2024-01-25T05:23:52;101364.00;;;11.00
20103;BMP180;10210;52.284;9.892;2024-01-25T05:26:18;101367.00;;;11.00
20103;BMP180;10210;52.284;9.892;2024-01-25T05:28:44;101379.00;;;11.00
20103;BMP180;10210;52.284;9.892;2024-01-25T05:31:10;101372.00;;;11.00
20103;BMP180;10210;52.284;9.892;2024-01-25T05:33:41;101378.00;;;11.00
20103;BMP180;10210;52.284;9.892;2024-01-25T05:36:07;101373.00;;;11.00
20103;BMP180;10210;52.284;9.892;2024-01-25T05:38:33;101369.00;;;11.00
20103;BMP180;10210;52.284;9.892;2024-01-25T05:40:59;101376.00;;;11.00
20103;BMP180;10210;52.284;9.892;2024-01-25T05:43:25;101374.00;;;11.00
20103;BMP180;10210;52.284;9.892;2024-01-25T05:45:51;101369.00;;;11.00
20103;BMP180;10210;52.284;9.892;2024-01-25T05:48:17;101386.00;;;11.00
20103;BMP180;10210;52.284;9.892;2024-01-25T05:50:43;101383.00;;;11.00
20103;BMP180;10210;52.284;9.892;2024-01-25T05:53:08;101376.00;;;11.00
20103;BMP180;10210;52.284;9.892;2024-01-25T05:55:34;101383.00;;;11.00
20103;BMP180;10210;52.284;9.892;2024-01-25T05:58:00;101386.00;;;11.00
20103;BMP180;10210;52.284;9.892;2024-01-25T06:00:25;101384.00;;;11.00
20103;BMP180;10210;52.284;9.892;2024-01-25T06:02:51;101393.00;;;10.90
20103;BMP180;10210;52.284;9.892;2024-01-25T06:05:17;101393.00;;;10.90
20103;BMP180;10210;52.284;9.892;2024-01-25T06:07:44;101402.00;;;10.90
20103;BMP180;10210;52.284;9.892;2024-01-25T06:10:10;101386.00;;;10.90
20103;BMP180;10210;52.284;9.892;2024-01-25T06:12:36;101391.00;;;10.90
20103;BMP180;10210;52.284;9.892;2024-01-25T06:15:01;101396.00;;;10.90
20103;BMP180;10210;52.284;9.892;2024-01-25T06:17:27;101393.00;;;10.90
20103;BMP180;10210;52.284;9.892;2024-01-25T06:19:53;101394.00;;;10.90
20103;BMP180;10210;52.284;9.892;2024-01-25T06:22:19;101394.00;;;10.90
20103;BMP180;10210;52.284;9.892;2024-01-25T06:24:44;101401.00;;;10.90
20103;BMP180;10210;52.284;9.892;2024-01-25T06:27:10;101399.00;;;10.90
20103;BMP180;10210;52.284;9.892;2024-01-25T06:29:36;101407.00;;;10.80
20103;BMP180;10210;52.284;9.892;2024-01-25T06:32:02;101414.00;;;10.90
20103;BMP180;10210;52.284;9.892;2024-01-25T06:34:28;101419.00;;;10.90
20103;BMP180;10210;52.284;9.892;2024-01-25T06:36:54;101416.00;;;10.80
20103;BMP180;10210;52.284;9.892;2024-01-25T06:39:19;101427.00;;;10.80
20103;BMP180;10210;52.284;9.892;2024-01-25T06:41:45;101425.00;;;10.80
20103;BMP180;10210;52.284;9.892;2024-01-25T06:44:10;101437.00;;;10.80
20103;BMP180;10210;52.284;9.892;2024-01-25T06:46:36;101436.00;;;10.80
20103;BMP180;10210;52.284;9.892;2024-01-25T06:49:02;101437.00;;;10.80
20103;BMP180;10210;52.284;9.892;2024-01-25T06:51:28;101452.00;;;10.80
20103;BMP180;10210;52.284;9.892;2024-01-25T06:53:54;101443.00;;;10.70
20103;BMP180;10210;52.284;9.892;2024-01-25T06:56:19;101456.00;;;10.70
20103;BMP180;10210;52.284;9.892;2024-01-25T06:58:45;101449.00;;;10.70
20103;BMP180;10210;52.284;9.892;2024-01-25T07:01:11;101456.00;;;10.70
20103;BMP180;10210;52.284;9.892;2024-01-25T07:03:36;101456.00;;;10.70
20103;BMP180;10210;52.284;9.892;2024-01-25T07:06:03;101464.00;;;10.70
20103;BMP180;10210;52.284;9.892;2024-01-25T07:08:29;101467.00;;;10.70
20103;BMP180;10210;52.284;9.892;2024-01-25T07:10:55;101463.00;;;10.70
20103;BMP180;10210;52.284;9.892;2024-01-25T07:13:21;101470.00;;;10.70
20103;BMP180;10210;52.284;9.892;2024-01-25T07:15:47;101466.00;;;10.70
20103;BMP180;10210;52.284;9.892;2024-01-25T07:18:13;101479.00;;;10.70
20103;BMP180;10210;52.284;9.892;2024-01-25T07:20:39;101475.00;;;10.60
20103;BMP180;10210;52.284;9.892;2024-01-25T07:23:04;101474.00;;;10.60
20103;BMP180;10210;52.284;9.892;2024-01-25T07:25:30;101484.00;;;10.60
20103;BMP180;10210;52.284;9.892;2024-01-25T07:27:56;101482.00;;;10.60
20103;BMP180;10210;52.284;9.892;2024-01-25T07:30:22;101484.00;;;10.60
20103;BMP180;10210;52.284;9.892;2024-01-25T07:32:47;101486.00;;;10.60
20103;BMP180;10210;52.284;9.892;2024-01-25T07:35:15;101486.00;;;10.60
20103;BMP180;10210;52.284;9.892;2024-01-25T07:37:41;101492.00;;;10.60
20103;BMP180;10210;52.284;9.892;2024-01-25T07:40:08;101488.00;;;10.60
20103;BMP180;10210;52.284;9.892;2024-01-25T07:42:34;101482.00;;;10.60
20103;BMP180;10210;52.284;9.892;2024-01-25T07:45:00;101485.00;;;10.60
20103;BMP180;10210;52.284;9.892;2024-01-25T07:47:26;101484.00;;;10.60
20103;BMP180;10210;52.284;9.892;2024-01-25T07:49:52;101490.00;;;10.60
20103;BMP180;10210;52.284;9.892;2024-01-25T07:52:18;101490.00;;;10.60
20103;BMP180;10210;52.284;9.892;2024-01-25T07:54:43;101494.00;;;10.60
20103;BMP180;10210;52.284;9.892;2024-01-25T07:57:10;101493.00;;;10.60
20103;BMP180;10210;52.284;9.892;2024-01-25T07:59:35;101508.00;;;10.60
20103;BMP180;10210;52.284;9.892;2024-01-25T08:02:01;101519.00;;;10.60
20103;BMP180;10210;52.284;9.892;2024-01-25T08:04:27;101511.00;;;10.60
20103;BMP180;10210;52.284;9.892;2024-01-25T08:06:52;101515.00;;;10.60
20103;BMP180;10210;52.284;9.892;2024-01-25T08:09:18;101516.00;;;10.60
20103;BMP180;10210;52.284;9.892;2024-01-25T08:11:44;101525.00;;;10.50
20103;BMP180;10210;52.284;9.892;2024-01-25T08:14:10;101521.00;;;10.60
20103;BMP180;10210;52.284;9.892;2024-01-25T08:16:37;101516.00;;;10.60
20103;BMP180;10210;52.284;9.892;2024-01-25T08:19:03;101517.00;;;10.60
20103;BMP180;10210;52.284;9.892;2024-01-25T08:21:28;101518.00;;;10.60
20103;BMP180;10210;52.284;9.892;2024-01-25T08:23:54;101507.00;;;10.60
20103;BMP180;10210;52.284;9.892;2024-01-25T08:26:20;101521.00;;;10.60
20103;BMP180;10210;52.284;9.892;2024-01-25T08:28:46;101519.00;;;10.70
20103;BMP180;10210;52.284;9.892;2024-01-25T08:31:13;101525.00;;;10.70
20103;BMP180;10210;52.284;9.892;2024-01-25T08:33:39;101532.00;;;10.60
20103;BMP180;10210;52.284;9.892;2024-01-25T08:36:10;101530.00;;;10.70
20103;BMP180;10210;52.284;9.892;2024-01-25T08:38:36;101530.00;;;10.70
20103;BMP180;10210;52.284;9.892;2024-01-25T08:41:02;101541.00;;;10.60
20103;BMP180;10210;52.284;9.892;2024-01-25T08:43:27;101538.00;;;10.70
20103;BMP180;10210;52.284;9.892;2024-01-25T08:45:54;101539.00;;;10.70
20103;BMP180;10210;52.284;9.892;2024-01-25T08:48:19;101545.00;;;10.70
20103;BMP180;10210;52.284;9.892;2024-01-25T08:50:46;101558.00;;;10.70
20103;BMP180;10210;52.284;9.892;2024-01-25T08:53:12;101551.00;;;10.70
20103;BMP180;10210;52.284;9.892;2024-01-25T08:55:37;101550.00;;;10.70
20103;BMP180;10210;52.284;9.892;2024-01-25T08:58:04;101551.00;;;10.70
20103;BMP180;10210;52.284;9.892;2024-01-25T09:00:29;101549.00;;;10.70
20103;BMP180;10210;52.284;9.892;2024-01-25T09:02:55;101556.00;;;10.70
20103;BMP180;10210;52.284;9.892;2024-01-25T09:05:21;101559.00;;;10.70
20103;BMP180;10210;52.284;9.892;2024-01-25T09:07:47;101561.00;;;10.80
20103;BMP180;10210;52.284;9.892;2024-01-25T09:10:13;101565.00;;;10.80
20103;BMP180;10210;52.284;9.892;2024-01-25T09:12:39;101569.00;;;10.80
20103;BMP180;10210;52.284;9.892;2024-01-25T09:15:05;101574.00;;;10.80
20103;BMP180;10210;52.284;9.892;2024-01-25T09:17:31;101581.00;;;10.90
20103;BMP180;10210;52.284;9.892;2024-01-25T09:19:57;101573.00;;;10.90
20103;BMP180;10210;52.284;9.892;2024-01-25T09:22:26;101575.00;;;10.90
20103;BMP180;10210;52.284;9.892;2024-01-25T09:24:53;101588.00;;;10.90
20103;BMP180;10210;52.284;9.892;2024-01-25T09:27:18;101588.00;;;10.90
20103;BMP180;10210;52.284;9.892;2024-01-25T09:29:44;101596.00;;;10.90
20103;BMP180;10210;52.284;9.892;2024-01-25T09:32:10;101586.00;;;10.90
20103;BMP180;10210;52.284;9.892;2024-01-25T09:34:39;101594.00;;;10.90
20103;BMP180;10210;52.284;9.892;2024-01-25T09:37:05;101606.00;;;10.90
20103;BMP180;10210;52.284;9.892;2024-01-25T09:39:31;101600.00;;;10.90
20103;BMP180;10210;52.284;9.892;2024-01-25T09:41:58;101602.00;;;11.00
20103;BMP180;10210;52.284;9.892;2024-01-25T09:44:24;101605.00;;;11.00
20103;BMP180;10210;52.284;9.892;2024-01-25T09:46:51;101597.00;;;11.00
20103;BMP180;10210;52.284;9.892;2024-01-25T09:49:17;101609.00;;;11.00
20103;BMP180;10210;52.284;9.892;2024-01-25T09:51:43;101608.00;;;11.00
20103;BMP180;10210;52.284;9.892;2024-01-25T09:54:09;101605.00;;;11.00
20103;BMP180;10210;52.284;9.892;2024-01-25T09:56:36;101609.00;;;11.00
20103;BMP180;10210;52.284;9.892;2024-01-25T09:59:02;101621.00;;;11.00
20103;BMP180;10210;52.284;9.892;2024-01-25T10:01:30;101613.00;;;11.00
20103;BMP180;10210;52.284;9.892;2024-01-25T10:03:55;101613.00;;;11.00
20103;BMP180;10210;52.284;9.892;2024-01-25T10:06:23;101606.00;;;11.00
20103;BMP180;10210;52.284;9.892;2024-01-25T10:08:49;101606.00;;;11.00
20103;BMP180;10210;52.284;9.892;2024-01-25T10:11:16;101618.00;;;11.00
20103;BMP180;10210;52.284;9.892;2024-01-25T10:13:47;101621.00;;;11.00
20103;BMP180;10210;52.284;9.892;2024-01-25T10:16:14;101618.00;;;11.00
20103;BMP180;10210;52.284;9.892;2024-01-25T10:18:46;101618.00;;;11.00
20103;BMP180;10210;52.284;9.892;2024-01-25T10:21:13;101624.00;;;11.00
20103;BMP180;10210;52.284;9.892;2024-01-25T10:23:40;101620.00;;;11.10
20103;BMP180;10210;52.284;9.892;2024-01-25T10:26:08;101628.00;;;11.10
20103;BMP180;10210;52.284;9.892;2024-01-25T10:28:34;101624.00;;;11.10
20103;BMP180;10210;52.284;9.892;2024-01-25T10:31:02;101619.00;;;11.10
20103;BMP180;10210;52.284;9.892;2024-01-25T10:33:30;101622.00;;;11.10
20103;BMP180;10210;52.284;9.892;2024-01-25T10:35:58;101629.00;;;11.10
20103;BMP180;10210;52.284;9.892;2024-01-25T10:38:34;101631.00;;;11.10
20103;BMP180;10210;52.284;9.892;2024-01-25T10:41:04;101638.00;;;11.10
20103;BMP180;10210;52.284;9.892;2024-01-25T10:43:31;101628.00;;;11.10
20103;BMP180;10210;52.284;9.892;2024-01-25T10:45:58;101629.00;;;11.10
20103;BMP180;10210;52.284;9.892;2024-01-25T10:48:28;101623.00;;;11.10
20103;BMP180;10210;52.284;9.892;2024-01-25T10:50:58;101614.00;;;11.20
20103;BMP180;10210;52.284;9.892;2024-01-25T10:53:32;101631.00;;;11.20
20103;BMP180;10210;52.284;9.892;2024-01-25T10:55:58;101633.00;;;11.20
20103;BMP180;10210;52.284;9.892;2024-01-25T10:58:30;101639.00;;;11.20
20103;BMP180;10210;52.284;9.892;2024-01-25T11:00:55;101636.00;;;11.30
20103;BMP180;10210;52.284;9.892;2024-01-25T11:03:29;101640.00;;;11.30
20103;BMP180;10210;52.284;9.892;2024-01-25T11:06:10;101639.00;;;11.30
20103;BMP180;10210;52.284;9.892;2024-01-25T11:08:39;101631.00;;;11.30
20103;BMP180;10210;52.284;9.892;2024-01-25T11:11:13;101644.00;;;11.30
20103;BMP180;10210;52.284;9.892;2024-01-25T11:13:41;101636.00;;;11.30
20103;BMP180;10210;52.284;9.892;2024-01-25T11:16:18;101639.00;;;11.30
20103;BMP180;10210;52.284;9.892;2024-01-25T11:18:57;101634.00;;;11.30
20103;BMP180;10210;52.284;9.892;2024-01-25T11:21:46;101626.00;;;11.40
20103;BMP180;10210;52.284;9.892;2024-01-25T11:24:24;101628.00;;;11.40
20103;BMP180;10210;52.284;9.892;2024-01-25T11:26:54;101626.00;;;11.40
20103;BMP180;10210;52.284;9.892;2024-01-25T11:29:21;101623.00;;;11.40
20103;BMP180;10210;52.284;9.892;2024-01-25T11:31:52;101634.00;;;11.40
20103;BMP180;10210;52.284;9.892;2024-01-25T11:34:18;101630.00;;;11.40
20103;BMP180;10210;52.284;9.892;2024-01-25T11:36:45;101625.00;;;11.50
20103;BMP180;10210;52.284;9.892;2024-01-25T11:39:12;101623.00;;;11.50
20103;BMP180;10210;52.284;9.892;2024-01-25T11:41:38;101626.00;;;11.50
20103;BMP180;10210;52.284;9.892;2024-01-25T11:44:04;101615.00;;;11.50
20103;BMP180;10210;52.284;9.892;2024-01-25T11:46:33;101612.00;;;11.50
20103;BMP180;10210;52.284;9.892;2024-01-25T11:48:58;101614.00;;;11.60
20103;BMP180;10210;52.284;9.892;2024-01-25T11:51:25;101620.00;;;11.60
20103;BMP180;10210;52.284;9.892;2024-01-25T11:53:50;101619.00;;;11.60
20103;BMP180;10210;52.284;9.892;2024-01-25T11:56:38;101631.00;;;11.60
20103;BMP180;10210;52.284;9.892;2024-01-25T11:59:06;101620.00;;;11.60
20103;BMP180;10210;52.284;9.892;2024-01-25T12:01:32;101627.00;;;11.70
20103;BMP180;10210;52.284;9.892;2024-01-25T12:03:58;101631.00;;;11.70
20103;BMP180;10210;52.284;9.892;2024-01-25T12:06:24;101631.00;;;11.70
20103;BMP180;10210;52.284;9.892;2024-01-25T12:08:50;101624.00;;;11.80
20103;BMP180;10210;52.284;9.892;2024-01-25T12:11:17;101624.00;;;11.80
20103;BMP180;10210;52.284;9.892;2024-01-25T12:13:44;101634.00;;;11.70
20103;BMP180;10210;52.284;9.892;2024-01-25T12:16:11;101629.00;;;11.80
20103;BMP180;10210;52.284;9.892;2024-01-25T12:18:40;101617.00;;;11.70
20103;BMP180;10210;52.284;9.892;2024-01-25T12:21:07;101617.00;;;11.70
20103;BMP180;10210;52.284;9.892;2024-01-25T12:23:40;101602.00;;;11.70
20103;BMP180;10210;52.284;9.892;2024-01-25T12:26:10;101604.00;;;11.70
20103;BMP180;10210;52.284;9.892;2024-01-25T12:28:37;101601.00;;;11.80
20103;BMP180;10210;52.284;9.892;2024-01-25T12:31:05;101598.00;;;11.80
20103;BMP180;10210;52.284;9.892;2024-01-25T12:33:32;101602.00;;;11.90
20103;BMP180;10210;52.284;9.892;2024-01-25T12:35:59;101589.00;;;11.90
20103;BMP180;10210;52.284;9.892;2024-01-25T12:38:25;101604.00;;;11.90
20103;BMP180;10210;52.284;9.892;2024-01-25T12:40:52;101584.00;;;11.90
20103;BMP180;10210;52.284;9.892;2024-01-25T12:43:19;101592.00;;;11.90
20103;BMP180;10210;52.284;9.892;2024-01-25T12:45:47;101600.00;;;11.90
20103;BMP180;10210;52.284;9.892;2024-01-25T12:48:14;101606.00;;;11.90
20103;BMP180;10210;52.284;9.892;2024-01-25T12:50:42;101601.00;;;12.00
20103;BMP180;10210;52.284;9.892;2024-01-25T12:53:10;101613.00;;;12.00
20103;BMP180;10210;52.284;9.892;2024-01-25T12:55:37;101614.00;;;12.00
20103;BMP180;10210;52.284;9.892;2024-01-25T12:58:03;101612.00;;;12.10
20103;BMP180;10210;52.284;9.892;2024-01-25T13:00:29;101598.00;;;12.10
20103;BMP180;10210;52.284;9.892;2024-01-25T13:02:55;101607.00;;;12.10
20103;BMP180;10210;52.284;9.892;2024-01-25T13:05:22;101607.00;;;12.10
20103;BMP180;10210;52.284;9.892;2024-01-25T13:07:50;101615.00;;;12.10
20103;BMP180;10210;52.284;9.892;2024-01-25T13:10:16;101613.00;;;12.10
20103;BMP180;10210;52.284;9.892;2024-01-25T13:12:42;101614.00;;;12.10
20103;BMP180;10210;52.284;9.892;2024-01-25T13:15:08;101613.00;;;12.10
20103;BMP180;10210;52.284;9.892;2024-01-25T13:17:37;101591.00;;;12.20
20103;BMP180;10210;52.284;9.892;2024-01-25T13:20:04;101606.00;;;12.20
20103;BMP180;10210;52.284;9.892;2024-01-25T13:22:32;101601.00;;;12.20
20103;BMP180;10210;52.284;9.892;2024-01-25T13:25:00;101605.00;;;12.20
20103;BMP180;10210;52.284;9.892;2024-01-25T13:27:26;101612.00;;;12.20
20103;BMP180;10210;52.284;9.892;2024-01-25T13:29:53;101607.00;;;12.30
20103;BMP180;10210;52.284;9.892;2024-01-25T13:32:19;101605.00;;;12.30
20103;BMP180;10210;52.284;9.892;2024-01-25T13:34:44;101600.00;;;12.30
20103;BMP180;10210;52.284;9.892;2024-01-25T13:37:10;101608.00;;;12.30
20103;BMP180;10210;52.284;9.892;2024-01-25T13:39:36;101592.00;;;12.40
20103;BMP180;10210;52.284;9.892;2024-01-25T13:42:01;101598.00;;;12.50
20103;BMP180;10210;52.284;9.892;2024-01-25T13:44:27;101590.00;;;12.50
20103;BMP180;10210;52.284;9.892;2024-01-25T13:46:53;101584.00;;;12.50
20103;BMP180;10210;52.284;9.892;2024-01-25T13:49:22;101582.00;;;12.60
20103;BMP180;10210;52.284;9.892;2024-01-25T13:51:47;101578.00;;;12.60
20103;BMP180;10210;52.284;9.892;2024-01-25T13:54:19;101578.00;;;12.70